SCSE/LSC METAR and TAF weather

Enter ICAO airport designator
Station Type Date Time Source
SCSE METAR 2022/12/04 11:21 UTC NOAA

SCSE 041121Z VRB02KT 9999 BKN007 13/13 Q1014


Station Type Date Time Source
SCSE Decoded METAR 2022/12/04 11:21 UTC NOAA

La Serena, Chile (SCSE) 29-54S 071-12W
Dec 04, 2022 - 06:21 AM EST / 2022.12.04 1121 UTC
Wind: Variable at 2 MPH (2 KT):0
Visibility: greater than 7 mile(s):0
Sky conditions: mostly cloudy
Temperature: 55 F (13 C)
Dew Point: 55 F (13 C)
Relative Humidity: 100%
Pressure (altimeter): 29.94 in. Hg (1014 hPa)
ob: SCSE 041121Z VRB02KT 9999 BKN007 13/13 Q1014
cycle: 11

Station Type Date Time Source
SCSE TAF 2022/12/04 12:15 UTC NOAA

TAF TAF SCSE 041000Z 0412/0512 26004KT 9999 SCT006 BKN010 TX19/0419Z TN12/0510Z
TEMPO 0412/0415 3000 BR BKN005
BECMG 0416/0418 29012KT FEW015
BECMG 0420/0422 CAVOK
BECMG 0502/0504 28004KT
BECMG 0505/0507 BKN010

Example: see airport list